Metar z połowy godziny Komunikat METAR ze strony awiacja.imgw.pl Metar G30 EPMO METAR EPMO 162230Z 15004KT 110V190 9999 OVC029 M01/M04 Q1020 R08/290195 =